Terminal Aerodrome Forecast
Issued by NWS

Current Version | Previous Version | Graphics & Text | Print | Product List | Glossary On
Versions: 1 2 3 4 5 6 7 8 9 10 11 12 13 14 15 16 17 18 19
000
FTUS41 KPBZ 211725
TAFMGW
TAF
KMGW 211725Z 2118/2218 27003KT P6SM VCTS BKN045CB
     FM220000 00000KT P6SM SCT110
     FM220400 00000KT 5SM BR SCT200
     FM220800 00000KT 2SM BR SCT100
     FM221400 20004KT P6SM VCTS BKN060CB
     FM221700 22007KT P6SM -SHRA VCTS OVC070CB=

USA.gov is the U.S. government's official web portal to all federal, state and local government web resources and services.